Time;durP1;ratioP1;P1;durP2;ratioP2;P2;SDS_P1;SDS_P2;PMS_P1;PMS_P2;Temp;Humidity;BMP_temperature;BMP_pressure;BME280_temperature;BME280_humidity;BME280_pressure;Samples;Min_cycle;Max_cycle;Signal;HPM_P1;HPM_P2
2021/03/09 00:01:37;;;;;;;9.50;5.15;;;;;;;3.27;62.13;101828.19;6274417;28;20048;-76
2021/03/09 00:04:38;;;;;;;12.02;4.65;;;;;;;3.28;64.57;101827.34;6274285;28;20084;-75
2021/03/09 00:07:41;;;;;;;9.38;4.60;;;;;;;3.23;64.63;101826.50;6274494;28;20044;-76
2021/03/09 00:10:42;;;;;;;7.22;4.28;;;;;;;3.26;63.53;101824.72;6274415;28;20502;-76
2021/03/09 00:13:43;;;;;;;9.32;4.53;;;;;;;3.28;63.33;101823.00;6273532;28;20052;-76
2021/03/09 00:16:44;;;;;;;9.95;4.65;;;;;;;3.27;65.01;101818.69;6274108;28;20096;-76
2021/03/09 00:19:45;;;;;;;18.77;4.93;;;;;;;3.20;64.96;101821.31;6274152;28;20052;-75
2021/03/09 00:22:46;;;;;;;10.63;4.30;;;;;;;3.18;65.04;101821.34;6272427;28;20053;-76
2021/03/09 00:25:47;;;;;;;14.90;4.78;;;;;;;3.18;65.28;101815.25;6273782;28;20118;-76
2021/03/09 00:28:48;;;;;;;11.63;4.70;;;;;;;3.17;65.43;101817.00;6273926;28;20128;-75
2021/03/09 00:31:49;;;;;;;12.07;5.18;;;;;;;3.15;65.26;101816.16;6273456;28;20069;-76
2021/03/09 00:34:50;;;;;;;10.32;4.57;;;;;;;3.14;65.82;101818.75;6273268;28;22315;-76
2021/03/09 00:37:51;;;;;;;9.18;4.40;;;;;;;3.14;65.37;101822.22;6273542;28;20047;-76
2021/03/09 00:40:52;;;;;;;10.20;4.43;;;;;;;3.18;65.28;101805.75;6273082;28;20041;-76
2021/03/09 00:43:53;;;;;;;12.32;4.88;;;;;;;3.25;65.93;101814.34;6273485;28;20071;-76
2021/03/09 00:46:54;;;;;;;10.60;5.25;;;;;;;3.14;66.20;101811.84;6273390;28;20102;-76
2021/03/09 00:49:55;;;;;;;12.60;5.55;;;;;;;3.18;65.27;101808.34;6273239;28;20119;-76
2021/03/09 00:52:57;;;;;;;7.75;4.15;;;;;;;3.20;65.32;101814.38;6273357;28;20056;-76
2021/03/09 00:55:57;;;;;;;14.27;5.55;;;;;;;3.17;66.36;101801.41;6273094;28;20052;-76
2021/03/09 00:58:58;;;;;;;10.07;5.15;;;;;;;3.17;65.31;101801.41;6273359;28;20049;-76
2021/03/09 01:01:59;;;;;;;11.98;5.63;;;;;;;3.14;66.87;101803.19;6272994;28;20063;-76
2021/03/09 01:05:00;;;;;;;13.48;5.43;;;;;;;3.13;68.80;101793.63;6273291;28;20049;-76
2021/03/09 01:08:02;;;;;;;14.13;5.78;;;;;;;3.13;69.17;101794.50;6272921;28;20568;-76
2021/03/09 01:11:03;;;;;;;14.02;5.60;;;;;;;3.10;70.00;101797.13;6273138;28;20057;-75
2021/03/09 01:14:03;;;;;;;11.55;5.50;;;;;;;3.05;71.35;101789.38;6273000;28;20280;-76
2021/03/09 01:17:04;;;;;;;10.60;4.85;;;;;;;3.08;70.98;101787.63;6272739;28;20473;-76
2021/03/09 01:20:07;;;;;;;14.30;5.80;;;;;;;3.03;71.94;101783.31;6272918;28;20045;-76
2021/03/09 01:23:09;;;;;;;9.73;5.18;;;;;;;3.02;72.21;101786.78;6272464;28;20049;-76
2021/03/09 01:26:10;;;;;;;14.57;5.82;;;;;;;3.04;72.33;101782.47;6272460;28;20492;-76
2021/03/09 01:29:11;;;;;;;13.18;5.55;;;;;;;3.16;70.66;101770.25;6272643;28;20049;-75
2021/03/09 01:32:11;;;;;;;11.88;5.93;;;;;;;3.13;68.78;101765.94;6272437;28;20131;-76
2021/03/09 01:35:13;;;;;;;15.35;6.43;;;;;;;3.06;71.44;101766.84;6271811;28;20423;-76
2021/03/09 01:38:15;;;;;;;11.23;5.30;;;;;;;3.10;71.44;101771.16;6272497;28;20072;-76
2021/03/09 01:41:16;;;;;;;11.98;6.15;;;;;;;3.10;70.25;101762.53;6272166;28;20052;-75
2021/03/09 01:44:17;;;;;;;11.13;5.60;;;;;;;3.06;72.98;101753.88;6272029;28;20049;-76
2021/03/09 01:47:19;;;;;;;20.17;7.82;;;;;;;3.13;72.62;101742.56;6272195;28;20045;-76
2021/03/09 01:50:20;;;;;;;13.45;5.95;;;;;;;3.08;73.16;101743.47;6272063;28;20068;-76
2021/03/09 01:53:22;;;;;;;13.05;5.90;;;;;;;3.10;74.08;101746.94;6272064;28;20102;-76
2021/03/09 01:56:23;;;;;;;17.20;7.05;;;;;;;3.10;73.62;101736.56;6271845;28;20053;-76
2021/03/09 01:59:25;;;;;;;13.95;6.05;;;;;;;3.08;73.17;101731.34;6271747;28;20049;-76
2021/03/09 02:02:26;;;;;;;17.15;7.00;;;;;;;3.13;72.43;101726.97;6271553;28;20409;-75
2021/03/09 02:05:27;;;;;;;22.15;8.57;;;;;;;3.13;74.32;101724.38;6271554;28;20088;-75
2021/03/09 02:08:30;;;;;;;15.13;6.90;;;;;;;3.15;74.01;101722.66;6271814;28;20490;-76
2021/03/09 02:11:39;;;;;;;14.73;6.65;;;;;;;3.12;74.97;101717.47;6271603;28;20060;-76
2021/03/09 02:14:48;;;;;;;16.05;6.65;;;;;;;3.13;73.79;101711.41;6271749;28;20052;-76
2021/03/09 02:17:54;;;;;;;12.23;5.97;;;;;;;3.24;72.24;101713.94;6271750;28;20049;-75
2021/03/09 02:21:46;;;;;;;14.48;5.82;;;;;;;3.31;72.77;101713.00;6271447;28;20049;-75
2021/03/09 02:25:16;;;;;;;13.70;5.80;;;;;;;3.29;71.77;101696.56;6254446;28;20055;-75
2021/03/09 02:28:28;;;;;;;22.38;6.25;;;;;;;3.34;71.13;101697.41;6271611;28;20049;-75
2021/03/09 02:31:32;;;;;;;18.05;6.50;;;;;;;3.28;73.26;101700.06;6270934;28;20049;-75
2021/03/09 02:34:37;;;;;;;21.38;7.40;;;;;;;3.24;73.66;101707.00;6271169;28;20418;-75
2021/03/09 02:37:41;;;;;;;19.77;8.70;;;;;;;3.24;74.87;101690.56;6271138;28;20417;-75
2021/03/09 02:40:44;;;;;;;16.63;7.80;;;;;;;3.07;76.12;101698.47;6271240;28;20044;-77
2021/03/09 02:43:48;;;;;;;19.83;7.68;;;;;;;3.17;76.10;101691.47;6271270;28;20053;-77
2021/03/09 02:46:50;;;;;;;18.58;7.70;;;;;;;3.11;77.55;101686.31;6275319;28;20048;-77
2021/03/09 02:49:53;;;;;;;15.85;7.35;;;;;;;3.05;77.29;101690.69;6276357;28;20053;-76
2021/03/09 02:53:00;;;;;;;32.65;10.65;;;;;;;2.87;79.77;101687.38;6275919;28;20468;-75
2021/03/09 02:56:04;;;;;;;16.90;7.72;;;;;;;2.85;78.45;101683.91;6276211;28;20045;-75
2021/03/09 02:59:07;;;;;;;19.60;8.00;;;;;;;2.84;78.96;101675.25;6275949;28;20041;-75
2021/03/09 03:02:11;;;;;;;17.98;7.07;;;;;;;2.92;78.60;101670.88;6275476;28;20056;-75
2021/03/09 03:05:14;;;;;;;18.02;7.25;;;;;;;2.89;79.07;101668.28;6276000;28;20056;-75
2021/03/09 03:08:16;;;;;;;16.05;7.43;;;;;;;2.81;80.44;101664.88;6275960;28;20049;-75
2021/03/09 03:11:18;;;;;;;17.92;6.53;;;;;;;2.88;79.89;101657.94;6275555;28;20660;-76
2021/03/09 03:14:20;;;;;;;13.52;6.85;;;;;;;2.73;81.37;101656.31;6275582;28;20056;-76
2021/03/09 03:17:22;;;;;;;15.90;6.47;;;;;;;2.60;82.84;101658.13;6275579;28;20060;-75
2021/03/09 03:20:24;;;;;;;14.68;6.30;;;;;;;2.72;83.36;101658.00;6275826;28;20049;-75
2021/03/09 03:23:26;;;;;;;15.60;6.82;;;;;;;2.45;84.16;101653.88;6275147;28;20406;-75
2021/03/09 03:26:28;;;;;;;14.25;6.95;;;;;;;2.45;85.23;101651.28;6273983;28;20052;-76
2021/03/09 03:30:09;;;;;;;14.48;6.68;;;;;;;2.31;85.83;101658.25;6273686;28;20049;-77
2021/03/09 03:33:11;;;;;;;11.90;6.15;;;;;;;2.26;86.94;101660.84;6273250;28;20049;-77
2021/03/09 03:36:12;;;;;;;15.75;6.32;;;;;;;2.20;88.60;101654.84;6273441;28;20413;-77
2021/03/09 03:39:13;;;;;;;15.30;6.35;;;;;;;2.17;87.66;101649.66;6273905;28;20045;-77
2021/03/09 03:42:14;;;;;;;14.57;6.55;;;;;;;2.09;89.00;101649.72;6272304;28;20256;-77
2021/03/09 03:45:18;;;;;;;17.35;6.65;;;;;;;2.02;90.74;101648.00;6273459;28;20049;-77
2021/03/09 03:48:21;;;;;;;19.42;6.35;;;;;;;2.05;90.57;101644.56;6272893;28;20041;-77
2021/03/09 03:51:30;;;;;;;16.38;6.95;;;;;;;1.95;90.78;101648.88;6273385;28;20049;-77
2021/03/09 03:54:39;;;;;;;16.40;6.53;;;;;;;1.82;92.43;101636.81;6273273;28;20049;-77
2021/03/09 03:57:46;;;;;;;17.55;6.50;;;;;;;1.83;93.77;101633.41;6272792;28;20441;-78
2021/03/09 04:00:47;;;;;;;17.13;6.82;;;;;;;1.80;93.73;101626.47;6273086;28;20045;-78
2021/03/09 04:03:51;;;;;;;16.38;7.10;;;;;;;1.76;95.12;101624.75;6273059;28;20044;-78
2021/03/09 04:06:54;;;;;;;14.50;6.53;;;;;;;1.75;95.67;101626.50;6272724;28;20049;-78
2021/03/09 04:09:56;;;;;;;18.08;6.85;;;;;;;1.74;95.46;101616.13;6273147;28;20049;-75
2021/03/09 04:12:57;;;;;;;14.50;6.35;;;;;;;1.69;95.14;101615.28;6272802;28;20048;-78
2021/03/09 04:15:59;;;;;;;16.88;6.32;;;;;;;1.74;95.72;101616.13;6273037;28;20095;-78
2021/03/09 04:19:02;;;;;;;14.10;6.50;;;;;;;1.64;95.92;101617.03;6272891;28;20048;-77
2021/03/09 04:22:04;;;;;;;17.05;6.65;;;;;;;1.57;96.26;101610.13;6272437;28;20045;-78
2021/03/09 04:25:07;;;;;;;13.68;6.97;;;;;;;1.53;96.41;101614.44;6255839;28;503743;-78
2021/03/09 04:28:08;;;;;;;19.70;6.72;;;;;;;1.60;96.55;101605.81;6274012;28;20459;-78
2021/03/09 04:31:10;;;;;;;17.90;7.25;;;;;;;1.54;96.83;101603.22;6273770;28;20053;-77
2021/03/09 04:34:12;;;;;;;23.60;8.02;;;;;;;1.50;98.61;101602.38;6273726;28;20417;-78
2021/03/09 04:37:14;;;;;;;21.98;8.73;;;;;;;1.51;98.85;101604.09;6273185;28;20084;-75
2021/03/09 04:40:16;;;;;;;20.90;9.82;;;;;;;1.56;98.68;101606.69;6273614;28;20453;-76
2021/03/09 04:43:17;;;;;;;24.75;8.30;;;;;;;1.52;98.88;101602.38;6273039;28;20045;-78
2021/03/09 04:46:21;;;;;;;20.15;7.85;;;;;;;1.41;99.56;101599.81;6273624;28;20056;-78
2021/03/09 04:49:22;;;;;;;27.58;9.73;;;;;;;1.46;99.53;101592.03;6273640;28;20041;-78
2021/03/09 04:52:25;;;;;;;23.48;9.73;;;;;;;1.42;99.50;101592.91;6272805;28;20053;-78
2021/03/09 04:55:26;;;;;;;23.20;9.82;;;;;;;1.48;99.99;101590.28;6273098;28;20049;-78
2021/03/09 04:58:27;;;;;;;23.05;9.20;;;;;;;1.37;100.00;101592.91;6273294;28;20072;-78
2021/03/09 05:01:28;;;;;;;24.40;9.85;;;;;;;1.32;100.00;101588.59;6272940;28;20064;-78
2021/03/09 05:04:30;;;;;;;21.02;9.23;;;;;;;1.34;100.00;101581.69;6273190;28;20055;-78
2021/03/09 05:07:31;;;;;;;24.83;9.65;;;;;;;1.23;100.00;101590.34;6272243;28;20390;-78
2021/03/09 05:10:31;;;;;;;22.45;9.88;;;;;;;1.27;100.00;101578.25;6272685;28;20131;-77
2021/03/09 05:13:32;;;;;;;28.45;10.02;;;;;;;1.24;100.00;101581.72;6272766;28;20045;-78
2021/03/09 05:16:33;;;;;;;26.95;10.32;;;;;;;1.26;100.00;101577.38;6273045;28;20053;-78
2021/03/09 05:19:35;;;;;;;25.25;10.43;;;;;;;1.20;100.00;101576.53;6272839;28;20504;-78
2021/03/09 05:22:36;;;;;;;24.40;10.10;;;;;;;1.23;100.00;101577.41;6272725;28;20052;-78
2021/03/09 05:25:37;;;;;;;26.77;10.63;;;;;;;1.05;100.00;101571.41;6272625;28;20051;-77
2021/03/09 05:28:38;;;;;;;19.73;9.93;;;;;;;0.98;100.00;101567.94;6272657;28;20049;-77
2021/03/09 05:31:39;;;;;;;28.50;10.68;;;;;;;0.98;100.00;101570.53;6272973;28;20076;-77
2021/03/09 05:34:40;;;;;;;24.63;10.73;;;;;;;0.93;100.00;101567.06;6272280;28;20402;-78
2021/03/09 05:37:42;;;;;;;24.88;10.45;;;;;;;0.86;100.00;101567.94;6272390;28;20052;-78
2021/03/09 05:40:44;;;;;;;21.58;9.43;;;;;;;0.91;100.00;101563.63;6271854;28;20049;-78
2021/03/09 05:43:45;;;;;;;26.48;11.13;;;;;;;0.96;100.00;101565.34;6272237;28;20049;-78
2021/03/09 05:46:46;;;;;;;33.97;11.30;;;;;;;0.79;100.00;101558.47;6272306;28;20049;-78
2021/03/09 05:49:48;;;;;;;26.38;10.10;;;;;;;0.79;100.00;101554.16;6272367;28;20120;-78
2021/03/09 05:52:49;;;;;;;23.73;11.18;;;;;;;0.75;100.00;101560.19;6271857;28;20417;-79
2021/03/09 05:55:50;;;;;;;20.60;10.23;;;;;;;0.75;100.00;101553.28;6272129;28;20045;-79
2021/03/09 05:58:52;;;;;;;27.90;10.98;;;;;;;0.69;100.00;101561.06;6271908;28;20045;-79
2021/03/09 06:01:53;;;;;;;22.80;9.98;;;;;;;0.76;100.00;101559.31;6271970;28;20056;-79
2021/03/09 06:04:55;;;;;;;26.05;10.95;;;;;;;0.75;100.00;101560.19;6271851;28;20061;-79
2021/03/09 06:07:56;;;;;;;24.25;11.02;;;;;;;0.75;100.00;101561.03;6271512;28;20045;-79
2021/03/09 06:11:17;;;;;;;22.55;10.70;;;;;;;0.66;100.00;101562.75;6271650;28;20052;-79
2021/03/09 06:14:18;;;;;;;24.55;9.98;;;;;;;0.66;100.00;101560.19;6271610;28;20421;-79
2021/03/09 06:17:24;;;;;;;29.17;10.68;;;;;;;0.64;100.00;101556.75;6271710;28;20044;-79
2021/03/09 06:20:27;;;;;;;25.55;10.82;;;;;;;0.63;100.00;101557.59;6271503;28;20106;-79
2021/03/09 06:23:28;;;;;;;34.72;13.77;;;;;;;0.58;100.00;101554.13;6271324;28;20498;-79
2021/03/09 06:26:35;;;;;;;24.40;10.30;;;;;;;0.57;100.00;101558.44;6271340;28;20107;-79
2021/03/09 06:29:44;;;;;;;26.42;10.65;;;;;;;0.53;100.00;101553.28;6271630;28;20049;-80
2021/03/09 06:32:46;;;;;;;26.98;11.75;;;;;;;0.51;100.00;101553.28;6271144;28;20059;-80
2021/03/09 06:35:47;;;;;;;30.60;11.20;;;;;;;0.63;100.00;101548.09;6271254;28;20055;-79
2021/03/09 06:38:54;;;;;;;23.35;11.10;;;;;;;0.59;100.00;101550.69;6270702;28;20045;-79
2021/03/09 06:42:00;;;;;;;28.88;11.50;;;;;;;0.62;100.00;101548.97;6270978;28;20107;-78
2021/03/09 06:45:04;;;;;;;31.33;11.98;;;;;;;0.64;100.00;101546.41;6271119;28;20057;-79
2021/03/09 06:48:18;;;;;;;26.60;11.77;;;;;;;0.71;100.00;101546.38;6271374;28;20052;-79
2021/03/09 06:51:30;;;;;;;27.52;11.90;;;;;;;0.55;100.00;101547.25;6270939;28;20053;-79
2021/03/09 06:54:42;;;;;;;24.33;11.18;;;;;;;0.62;100.00;101542.94;6271307;28;20041;-79
2021/03/09 06:58:04;;;;;;;27.33;11.38;;;;;;;0.62;100.00;101553.28;6271000;28;20391;-78
2021/03/09 07:01:14;;;;;;;27.98;11.63;;;;;;;0.66;100.00;101542.94;6270921;28;20049;-79
2021/03/09 07:04:21;;;;;;;24.27;11.68;;;;;;;0.78;100.00;101542.09;6270870;28;20118;-79
2021/03/09 07:07:30;;;;;;;26.63;12.60;;;;;;;0.69;100.00;101545.53;6270991;28;20041;-79
2021/03/09 07:10:31;;;;;;;25.35;10.68;;;;;;;0.77;100.00;101540.34;6270681;28;20045;-79
2021/03/09 07:13:33;;;;;;;26.23;11.57;;;;;;;0.71;100.00;101542.94;6270841;28;20114;-79
2021/03/09 07:16:35;;;;;;;26.48;11.93;;;;;;;0.69;100.00;101542.94;6270831;28;20072;-79
2021/03/09 07:19:40;;;;;;;30.08;12.00;;;;;;;0.67;100.00;101546.38;6270775;28;20041;-79
2021/03/09 07:22:42;;;;;;;31.52;14.18;;;;;;;0.77;100.00;101550.69;6270617;28;20052;-79
2021/03/09 07:25:45;;;;;;;33.85;12.63;;;;;;;0.80;100.00;101547.25;6270794;28;20095;-80
2021/03/09 07:28:51;;;;;;;35.10;13.60;;;;;;;0.79;100.00;101550.69;6270715;28;20045;-79
2021/03/09 07:31:56;;;;;;;24.95;12.23;;;;;;;0.73;100.00;101548.97;6272807;28;20076;-79
2021/03/09 07:34:58;;;;;;;27.25;12.63;;;;;;;0.76;100.00;101556.72;6275244;28;20493;-80
2021/03/09 07:38:02;;;;;;;29.67;12.52;;;;;;;0.83;100.00;101545.53;6278951;28;20036;-77
2021/03/09 07:41:03;;;;;;;40.88;13.00;;;;;;;0.83;100.00;101548.13;6274598;28;20597;-77
2021/03/09 07:44:05;;;;;;;23.25;11.55;;;;;;;0.77;100.00;101550.69;6275385;28;20137;-77
2021/03/09 07:47:07;;;;;;;32.20;14.80;;;;;;;0.76;100.00;101552.41;6274913;28;20049;-78
2021/03/09 07:50:12;;;;;;;29.80;13.38;;;;;;;0.89;100.00;101547.25;6274819;28;20049;-76
2021/03/09 07:53:15;;;;;;;24.45;12.68;;;;;;;0.99;100.00;101549.81;6274774;28;20052;-77
2021/03/09 07:56:17;;;;;;;27.35;12.27;;;;;;;0.86;100.00;101545.50;6292497;28;20048;-76
2021/03/09 07:59:18;;;;;;;27.40;12.65;;;;;;;0.82;100.00;101537.75;6288038;28;20079;-77
2021/03/09 08:02:38;;;;;;;28.23;12.70;;;;;;;0.78;100.00;101539.50;6273720;28;20053;-77
2021/03/09 08:05:49;;;;;;;25.55;12.55;;;;;;;0.78;100.00;101542.09;6249745;28;20464;-75
2021/03/09 08:08:52;;;;;;;28.25;13.23;;;;;;;0.87;100.00;101541.22;6255254;28;20049;-77
2021/03/09 08:11:53;;;;;;;25.25;11.75;;;;;;;0.91;100.00;101536.03;6274281;28;20056;-78
2021/03/09 08:15:18;;;;;;;27.15;13.18;;;;;;;0.88;100.00;101536.03;6274402;28;20495;-78
2021/03/09 08:18:44;;;;;;;25.73;12.10;;;;;;;0.89;100.00;101539.47;6274285;28;20045;-78
2021/03/09 08:21:57;;;;;;;28.40;12.02;;;;;;;0.81;100.00;101542.06;6273913;28;20461;-78
2021/03/09 08:24:59;;;;;;;27.25;13.93;;;;;;;0.69;100.00;101540.34;6273916;28;20076;-79
2021/03/09 08:28:33;;;;;;;25.33;12.57;;;;;;;0.65;100.00;101536.03;6274234;28;20632;-76
2021/03/09 08:31:33;;;;;;;26.88;12.43;;;;;;;0.57;100.00;101530.00;6272573;28;20052;-78
2021/03/09 08:34:34;;;;;;;28.45;14.25;;;;;;;0.64;100.00;101539.50;6273674;28;20142;-78
2021/03/09 08:37:35;;;;;;;32.95;12.63;;;;;;;0.59;100.00;101540.34;6273563;28;20045;-78
2021/03/09 08:40:56;;;;;;;30.95;12.65;;;;;;;0.57;100.00;101530.00;6273326;28;20076;-78
2021/03/09 08:44:19;;;;;;;34.90;14.80;;;;;;;0.66;100.00;101531.72;6272624;28;20053;-78
2021/03/09 08:47:20;;;;;;;29.30;13.82;;;;;;;0.62;100.00;101536.03;6273653;28;20052;-76
2021/03/09 08:50:39;;;;;;;29.85;13.93;;;;;;;0.56;100.00;101527.44;6273444;28;20048;-76
2021/03/09 08:53:40;;;;;;;34.97;15.05;;;;;;;0.60;100.00;101535.19;6273449;28;20098;-77
2021/03/09 08:56:41;;;;;;;29.83;14.32;;;;;;;0.61;100.00;101536.03;6273189;28;20493;-76
2021/03/09 08:59:45;;;;;;;37.95;16.67;;;;;;;0.63;100.00;101532.56;6273380;28;20049;-77
2021/03/09 09:02:45;;;;;;;30.27;13.60;;;;;;;0.54;100.00;101531.72;6272872;28;20063;-76
2021/03/09 09:05:46;;;;;;;30.90;14.68;;;;;;;0.49;100.00;101524.81;6273321;28;20045;-76
2021/03/09 09:08:47;;;;;;;28.30;13.88;;;;;;;0.47;100.00;101518.78;6272754;28;20045;-76
2021/03/09 09:11:48;;;;;;;31.52;13.80;;;;;;;0.45;100.00;101525.66;6272859;28;20055;-77
2021/03/09 09:15:01;;;;;;;31.20;13.60;;;;;;;0.57;100.00;101522.25;6272838;28;20582;-77
2021/03/09 09:18:04;;;;;;;30.33;14.38;;;;;;;0.61;100.00;101529.13;6272728;28;20417;-79
2021/03/09 09:21:05;;;;;;;32.38;14.77;;;;;;;0.74;100.00;101524.84;6272471;28;20055;-75
2021/03/09 09:24:21;;;;;;;30.45;14.70;;;;;;;0.87;100.00;101523.97;6272713;28;20452;-77
2021/03/09 09:27:22;;;;;;;34.72;15.43;;;;;;;0.84;100.00;101528.28;6272628;28;20052;-77
2021/03/09 09:30:33;;;;;;;30.88;15.30;;;;;;;0.89;100.00;101524.81;6272448;28;20080;-75
2021/03/09 09:33:34;;;;;;;31.98;14.75;;;;;;;0.88;100.00;101522.22;6272094;28;20049;-75
2021/03/09 09:36:35;;;;;;;33.05;15.63;;;;;;;0.90;100.00;101526.53;6272788;28;20061;-76
2021/03/09 09:39:36;;;;;;;29.52;13.80;;;;;;;0.93;100.00;101516.19;6281583;28;20524;-76
2021/03/09 09:42:36;;;;;;;35.05;16.60;;;;;;;0.93;100.00;101521.38;6268936;28;20041;-76
2021/03/09 09:45:43;;;;;;;30.10;15.18;;;;;;;1.05;100.00;101525.66;6271639;28;20079;-76
2021/03/09 09:48:44;;;;;;;31.52;15.63;;;;;;;1.27;100.00;101526.47;6271971;28;20056;-76
2021/03/09 09:51:47;;;;;;;30.88;14.70;;;;;;;1.29;100.00;101531.66;6271935;28;20497;-76
2021/03/09 09:54:53;;;;;;;38.58;16.90;;;;;;;1.21;100.00;101524.75;6271691;28;20095;-76
2021/03/09 09:57:55;;;;;;;34.72;15.52;;;;;;;1.26;100.00;101527.34;6270908;28;20059;-76
2021/03/09 10:00:57;;;;;;;35.85;17.67;;;;;;;1.29;100.00;101523.88;6271450;28;20497;-76
2021/03/09 10:03:59;;;;;;;30.90;15.25;;;;;;;1.30;100.00;101523.00;6271418;28;20075;-75
2021/03/09 10:07:12;;;;;;;29.13;14.43;;;;;;;1.33;100.00;101528.19;6270019;28;20045;-75
2021/03/09 10:10:13;;;;;;;29.42;15.00;;;;;;;1.45;100.00;101528.13;6268061;28;20438;-76
2021/03/09 10:13:18;;;;;;;31.98;14.90;;;;;;;1.51;100.00;101530.72;6269782;28;20056;-77
2021/03/09 10:16:38;;;;;;;32.47;15.05;;;;;;;1.62;100.00;101530.69;6269754;28;20505;-75
2021/03/09 10:19:39;;;;;;;33.90;14.95;;;;;;;1.59;100.00;101525.50;6268253;28;20048;-75
2021/03/09 10:22:40;;;;;;;34.72;15.70;;;;;;;1.70;100.00;101523.75;6269800;28;20102;-74
2021/03/09 10:25:41;;;;;;;33.05;14.50;;;;;;;1.87;100.00;101524.53;6269554;28;20135;-75
2021/03/09 10:28:42;;;;;;;32.35;16.85;;;;;;;1.87;100.00;101521.94;6269903;28;20079;-75
2021/03/09 10:31:46;;;;;;;31.23;14.65;;;;;;;1.86;100.00;101517.59;6269438;28;20059;-75
2021/03/09 10:34:49;;;;;;;31.95;15.82;;;;;;;1.97;100.00;101518.41;6269522;28;20405;-75
2021/03/09 10:37:50;;;;;;;29.70;14.35;;;;;;;1.85;100.00;101518.47;6269431;28;20586;-75
2021/03/09 10:40:51;;;;;;;31.70;15.10;;;;;;;1.79;100.00;101515.94;6241125;22;20050;-73
2021/03/09 10:43:52;;;;;;;30.85;15.10;;;;;;;1.81;100.00;101521.94;6217747;28;20183;-76
2021/03/09 10:46:54;;;;;;;30.38;15.02;;;;;;;1.89;100.00;101519.31;6220124;28;20058;-75
2021/03/09 10:49:55;;;;;;;33.55;16.05;;;;;;;1.98;100.00;101511.50;6235505;28;20046;-75
2021/03/09 10:52:56;;;;;;;32.85;15.77;;;;;;;1.79;100.00;101515.94;6246297;28;20049;-75
2021/03/09 10:55:57;;;;;;;31.83;16.58;;;;;;;1.86;100.00;101514.16;6246373;28;20073;-75
2021/03/09 10:58:58;;;;;;;30.42;15.23;;;;;;;1.92;100.00;101527.09;6246280;28;20049;-75
2021/03/09 11:02:00;;;;;;;31.08;15.90;;;;;;;1.78;100.00;101520.25;6246048;28;20059;-75
2021/03/09 11:05:00;;;;;;;35.80;16.98;;;;;;;1.81;100.00;101510.72;6246242;28;20049;-75
2021/03/09 11:08:01;;;;;;;32.60;15.60;;;;;;;1.83;100.00;101520.22;6250381;28;20052;-74
2021/03/09 11:11:02;;;;;;;35.63;15.20;;;;;;;1.85;100.00;101518.47;6250987;28;20049;-74
2021/03/09 11:14:03;;;;;;;38.78;16.13;;;;;;;1.86;100.00;101514.16;6251096;28;20049;-75
2021/03/09 11:17:05;;;;;;;38.22;16.67;;;;;;;1.88;100.00;101510.69;6249319;28;20071;-73
2021/03/09 11:20:07;;;;;;;34.72;16.17;;;;;;;1.85;100.00;101507.25;6250769;28;20045;-73
2021/03/09 11:23:08;;;;;;;34.17;16.85;;;;;;;1.91;100.00;101510.69;6250919;28;20095;-76
2021/03/09 11:26:09;;;;;;;32.33;15.75;;;;;;;1.94;100.00;101512.38;6229911;28;20054;-74
2021/03/09 11:29:10;;;;;;;35.10;16.50;;;;;;;1.99;100.00;101506.31;6226050;28;20510;-74
2021/03/09 11:32:12;;;;;;;38.60;16.60;;;;;;;2.05;100.00;101512.34;6225954;28;20136;-74
2021/03/09 11:35:13;;;;;;;39.53;17.67;;;;;;;2.06;100.00;101508.88;6226067;28;20057;-73
2021/03/09 11:38:14;;;;;;;36.90;18.15;;;;;;;2.05;100.00;101509.75;6225995;28;20052;-71
2021/03/09 11:41:18;;;;;;;33.35;16.30;;;;;;;2.04;100.00;101508.88;6225473;28;20045;-72
2021/03/09 11:44:19;;;;;;;33.17;16.00;;;;;;;2.03;100.00;101509.75;6225976;28;20544;-71
2021/03/09 11:47:21;;;;;;;30.40;15.77;;;;;;;2.06;100.00;101514.06;6227475;28;20481;-71
2021/03/09 11:50:22;;;;;;;35.65;16.50;;;;;;;2.13;100.00;101505.34;6225841;28;20052;-71
2021/03/09 11:53:24;;;;;;;33.78;15.80;;;;;;;2.16;100.00;101503.59;6225439;28;20054;-71
2021/03/09 11:56:25;;;;;;;31.75;16.27;;;;;;;2.11;100.00;101501.94;6225581;28;20065;-71
2021/03/09 11:59:25;;;;;;;32.08;16.15;;;;;;;2.26;100.00;101504.41;6225388;28;20054;-71
2021/03/09 12:02:27;;;;;;;35.45;17.02;;;;;;;2.21;100.00;101520.00;6267479;28;20132;-71
2021/03/09 12:05:28;;;;;;;32.42;16.00;;;;;;;2.27;100.00;101512.19;6274747;28;20056;-71
2021/03/09 12:08:29;;;;;;;29.13;15.57;;;;;;;2.21;100.00;101513.94;6274347;28;20049;-71
2021/03/09 12:11:30;;;;;;;28.15;14.20;;;;;;;2.19;100.00;101511.38;6274407;28;20452;-71
2021/03/09 12:14:31;;;;;;;29.95;15.25;;;;;;;2.19;100.00;101502.75;6271531;28;20053;-71
2021/03/09 12:17:33;;;;;;;39.00;18.15;;;;;;;2.18;100.00;101499.28;6249744;28;20128;-71
2021/03/09 12:20:33;;;;;;;30.85;15.20;;;;;;;2.21;100.00;101501.84;6249306;28;20052;-71
2021/03/09 12:23:34;;;;;;;28.60;14.82;;;;;;;2.30;100.00;101498.31;6249476;28;20460;-71
2021/03/09 12:26:35;;;;;;;28.00;14.13;;;;;;;2.31;100.00;101486.22;6249314;28;20497;-72
2021/03/09 12:29:36;;;;;;;29.10;15.40;;;;;;;2.31;100.00;101489.66;6249292;28;20052;-71
2021/03/09 12:32:38;;;;;;;29.65;14.65;;;;;;;2.44;100.00;101491.31;6249267;28;20095;-71
2021/03/09 12:35:39;;;;;;;32.05;15.68;;;;;;;2.41;100.00;101480.97;6249112;28;20056;-71
2021/03/09 12:38:40;;;;;;;32.60;15.88;;;;;;;2.35;100.00;101481.00;6249097;28;20629;-72
2021/03/09 12:41:41;;;;;;;32.22;16.05;;;;;;;2.38;100.00;101478.38;6248785;28;20052;-72
2021/03/09 12:44:42;;;;;;;31.67;15.05;;;;;;;2.42;100.00;101477.50;6248967;28;20073;-73
2021/03/09 12:47:44;;;;;;;32.08;14.95;;;;;;;2.46;100.00;101484.38;6247677;28;20080;-72
2021/03/09 12:50:45;;;;;;;29.23;15.52;;;;;;;2.49;100.00;101486.06;6248895;28;20049;-72
2021/03/09 12:53:45;;;;;;;33.85;16.30;;;;;;;2.62;100.00;101485.09;6248681;28;20045;-73
2021/03/09 12:56:46;;;;;;;30.30;15.50;;;;;;;2.54;100.00;101473.91;6249055;28;20045;-71
2021/03/09 12:59:47;;;;;;;31.33;15.45;;;;;;;2.62;100.00;101479.06;6248501;28;20041;-72
2021/03/09 13:02:49;;;;;;;26.67;13.98;;;;;;;2.52;100.00;101480.88;6248248;28;20179;-72
2021/03/09 13:05:50;;;;;;;33.58;16.48;;;;;;;2.49;100.00;101475.69;6248655;28;20057;-72
2021/03/09 13:08:51;;;;;;;31.75;14.70;;;;;;;2.68;100.00;101471.22;6248402;28;20046;-71
2021/03/09 13:11:52;;;;;;;31.35;15.18;;;;;;;2.63;100.00;101473.84;6248350;28;20049;-72
2021/03/09 13:14:53;;;;;;;32.15;14.30;;;;;;;2.74;100.00;101466.84;6241565;28;20061;-72
2021/03/09 13:17:55;;;;;;;33.75;16.30;;;;;;;2.71;100.00;101466.00;6223651;28;20521;-71
2021/03/09 13:20:55;;;;;;;36.20;16.77;;;;;;;2.64;100.00;101453.97;6223186;28;20495;-71
2021/03/09 13:23:56;;;;;;;26.48;13.70;;;;;;;2.66;100.00;101465.19;6229186;28;20057;-72
2021/03/09 13:26:57;;;;;;;26.60;14.35;;;;;;;2.70;100.00;101465.13;6248066;28;20049;-71
2021/03/09 13:29:58;;;;;;;32.08;15.45;;;;;;;2.65;100.00;101461.72;6247189;28;20057;-71
2021/03/09 13:33:00;;;;;;;37.47;16.52;;;;;;;2.70;100.00;101465.13;6247740;28;20053;-71
2021/03/09 13:36:01;;;;;;;35.20;16.00;;;;;;;2.66;100.00;101470.38;6247648;28;20053;-72
2021/03/09 13:39:02;;;;;;;30.77;15.57;;;;;;;2.66;100.00;101455.66;6246908;28;20089;-71
2021/03/09 13:42:03;;;;;;;34.58;16.63;;;;;;;2.74;100.00;101460.78;6247186;28;20049;-71
2021/03/09 13:45:07;;;;;;;30.25;16.27;;;;;;;2.76;100.00;101461.63;6246026;28;20513;-71
2021/03/09 13:48:09;;;;;;;31.85;16.60;;;;;;;2.79;100.00;101467.66;6247215;28;20065;-71
2021/03/09 13:51:10;;;;;;;32.80;16.50;;;;;;;2.87;100.00;101469.31;6247364;28;20061;-71
2021/03/09 13:54:11;;;;;;;32.20;15.80;;;;;;;2.82;100.00;101455.50;6247209;28;20133;-71
2021/03/09 13:57:12;;;;;;;31.48;16.83;;;;;;;2.79;100.00;101462.47;6247467;28;20061;-71
2021/03/09 14:00:13;;;;;;;31.35;16.17;;;;;;;2.79;100.00;101466.78;6246985;28;20045;-70